createdAt,value
2023-04-17T00:01:40.211Z,11.65
2023-04-17T00:04:10.998Z,11.85
2023-04-17T00:06:38.738Z,12.48
2023-04-17T00:09:06.118Z,12.05
2023-04-17T00:11:32.850Z,11.88
2023-04-17T00:13:59.610Z,12.50
2023-04-17T00:16:27.282Z,12.13
2023-04-17T00:18:55.585Z,11.23
2023-04-17T00:21:22.719Z,14.05
2023-04-17T00:23:49.705Z,13.55
2023-04-17T00:26:16.612Z,13.02
2023-04-17T00:28:43.424Z,12.45
2023-04-17T00:31:10.163Z,13.68
2023-04-17T00:33:36.990Z,13.40
2023-04-17T00:36:04.011Z,13.10
2023-04-17T00:38:30.731Z,13.63
2023-04-17T00:40:57.390Z,13.20
2023-04-17T00:43:24.090Z,13.02
2023-04-17T00:45:51.743Z,13.40
2023-04-17T00:48:18.736Z,14.98
2023-04-17T00:50:45.850Z,14.00
2023-04-17T00:53:13.290Z,14.05
2023-04-17T00:55:43.300Z,13.75
2023-04-17T00:58:11.439Z,13.77
2023-04-17T01:00:38.120Z,13.52
2023-04-17T01:03:05.694Z,14.05
2023-04-17T01:05:35.369Z,13.52
2023-04-17T01:08:02.159Z,14.07
2023-04-17T01:10:28.931Z,13.88
2023-04-17T01:13:07.141Z,14.18
2023-04-17T01:18:02.408Z,12.90
2023-04-17T01:20:32.645Z,13.02
2023-04-17T01:23:00.508Z,13.85
2023-04-17T01:25:28.509Z,13.43
2023-04-17T01:27:56.335Z,13.23
2023-04-17T01:30:23.257Z,13.02
2023-04-17T01:32:50.126Z,13.15
2023-04-17T01:35:16.882Z,14.65
2023-04-17T01:37:43.680Z,13.00
2023-04-17T01:40:10.818Z,13.10
2023-04-17T01:42:37.545Z,12.50
2023-04-17T01:45:06.077Z,14.77
2023-04-17T01:47:33.044Z,14.18
2023-04-17T01:49:59.814Z,13.23
2023-04-17T01:52:26.603Z,12.88
2023-04-17T01:54:53.295Z,13.77
2023-04-17T01:57:20.030Z,13.38
2023-04-17T01:59:46.761Z,14.35
2023-04-17T02:02:13.776Z,14.32
2023-04-17T02:04:40.795Z,14.30
2023-04-17T02:07:07.761Z,14.88
2023-04-17T02:09:34.448Z,14.40
2023-04-17T02:12:01.712Z,13.95
2023-04-17T02:14:30.423Z,14.13
2023-04-17T02:16:57.516Z,13.80
2023-04-17T02:19:24.268Z,15.25
2023-04-17T02:21:51.047Z,15.27
2023-04-17T02:24:17.705Z,14.52
2023-04-17T02:26:45.112Z,13.73
2023-04-17T02:29:12.140Z,14.27
2023-04-17T02:31:41.464Z,15.32
2023-04-17T02:34:08.256Z,14.98
2023-04-17T02:36:35.473Z,15.25
2023-04-17T02:39:02.198Z,14.50
2023-04-17T02:41:28.939Z,14.40
2023-04-17T02:43:56.683Z,15.27
2023-04-17T02:46:23.403Z,15.73
2023-04-17T02:48:50.145Z,15.20
2023-04-17T02:51:16.877Z,14.82
2023-04-17T02:53:43.637Z,14.98
2023-04-17T02:56:10.425Z,16.17
2023-04-17T02:58:37.559Z,14.57
2023-04-17T03:01:04.344Z,15.20
2023-04-17T03:03:34.756Z,15.27
2023-04-17T03:06:02.154Z,14.65
2023-04-17T03:08:32.574Z,15.10
2023-04-17T03:10:59.738Z,16.20
2023-04-17T03:13:26.421Z,16.02
2023-04-17T03:15:53.274Z,15.20
2023-04-17T03:18:20.083Z,15.57
2023-04-17T03:20:46.865Z,15.45
2023-04-17T03:23:13.602Z,16.27
2023-04-17T03:25:40.525Z,15.93
2023-04-17T03:28:07.256Z,15.27
2023-04-17T03:30:34.070Z,16.75
2023-04-17T03:33:00.872Z,16.92
2023-04-17T03:35:27.917Z,16.45
2023-04-17T03:37:54.697Z,17.08
2023-04-17T03:40:21.461Z,18.25
2023-04-17T03:42:48.537Z,15.75
2023-04-17T03:45:16.856Z,18.67
2023-04-17T03:47:43.795Z,18.45
2023-04-17T03:50:10.885Z,17.52
2023-04-17T03:52:37.627Z,17.92
2023-04-17T03:55:04.943Z,18.00
2023-04-17T03:57:31.772Z,17.95
2023-04-17T03:59:58.579Z,18.30
2023-04-17T04:02:25.642Z,18.50
2023-04-17T04:04:53.590Z,18.05
2023-04-17T04:07:21.535Z,18.65
2023-04-17T04:09:48.323Z,18.88
2023-04-17T04:12:15.239Z,18.00
2023-04-17T04:14:42.269Z,19.30
2023-04-17T04:17:09.160Z,18.63
2023-04-17T04:19:36.030Z,18.38
2023-04-17T04:22:06.249Z,17.63
2023-04-17T04:24:33.993Z,18.38
2023-04-17T04:27:04.902Z,17.35
2023-04-17T04:29:32.099Z,18.20
2023-04-17T04:31:59.510Z,17.48
2023-04-17T04:34:29.680Z,18.00
2023-04-17T04:36:59.488Z,18.45
2023-04-17T04:39:26.307Z,19.02
2023-04-17T04:41:53.067Z,16.92
2023-04-17T04:44:19.975Z,19.25
2023-04-17T04:46:46.906Z,17.65
2023-04-17T04:49:13.869Z,18.60
2023-04-17T04:51:40.774Z,19.23
2023-04-17T04:54:07.488Z,18.65
2023-04-17T04:56:34.477Z,18.02
2023-04-17T04:59:01.372Z,18.08
2023-04-17T05:01:29.905Z,16.45
2023-04-17T05:03:56.910Z,17.45
2023-04-17T05:06:23.945Z,15.63
2023-04-17T05:08:51.965Z,16.17
2023-04-17T05:11:18.874Z,15.82
2023-04-17T05:13:45.892Z,16.05
2023-04-17T05:16:12.748Z,15.13
2023-04-17T05:18:39.674Z,15.93
2023-04-17T05:21:06.368Z,16.08
2023-04-17T05:23:33.186Z,15.73
2023-04-17T05:25:59.858Z,14.80
2023-04-17T05:28:27.234Z,14.65
2023-04-17T05:30:54.072Z,14.02
2023-04-17T05:33:20.926Z,13.80
2023-04-17T05:35:47.612Z,14.25
2023-04-17T05:38:14.414Z,13.60
2023-04-17T05:40:41.125Z,13.35
2023-04-17T05:43:09.283Z,13.00
2023-04-17T05:45:36.285Z,13.10
2023-04-17T05:48:03.670Z,12.98
2023-04-17T05:50:30.463Z,13.38
2023-04-17T05:52:57.395Z,13.15
2023-04-17T05:55:24.191Z,11.25
2023-04-17T05:57:51.249Z,13.00
2023-04-17T06:00:18.757Z,12.52
2023-04-17T06:02:45.942Z,12.35
2023-04-17T06:05:12.970Z,13.25
2023-04-17T06:07:40.427Z,12.38
2023-04-17T06:10:08.966Z,12.05
2023-04-17T06:12:36.478Z,11.98
2023-04-17T06:15:04.460Z,12.23
2023-04-17T06:17:31.808Z,13.60
2023-04-17T06:19:58.610Z,12.38
2023-04-17T06:22:25.597Z,12.65
2023-04-17T06:24:52.401Z,12.52
2023-04-17T06:27:19.150Z,12.38
2023-04-17T06:29:46.064Z,11.60
2023-04-17T06:32:12.720Z,13.20
2023-04-17T06:34:48.941Z,12.00
2023-04-17T06:37:25.249Z,12.45
2023-04-17T06:39:52.017Z,12.80
2023-04-17T06:42:20.567Z,12.55
2023-04-17T06:44:47.279Z,13.45
2023-04-17T06:47:14.053Z,13.10
2023-04-17T06:49:40.917Z,11.90
2023-04-17T06:52:07.705Z,11.55
2023-04-17T06:54:34.426Z,12.05
2023-04-17T06:57:01.853Z,11.30
2023-04-17T06:59:28.568Z,12.52
2023-04-17T07:01:55.430Z,11.90
2023-04-17T07:04:22.265Z,11.60
2023-04-17T07:06:48.984Z,11.80
2023-04-17T07:09:16.450Z,10.63
2023-04-17T07:11:43.251Z,10.43
2023-04-17T07:14:11.594Z,10.57
2023-04-17T07:16:39.678Z,10.52
2023-04-17T07:19:06.393Z,11.48
2023-04-17T07:21:33.117Z,10.10
2023-04-17T07:23:59.923Z,10.38
2023-04-17T07:26:26.989Z,11.32
2023-04-17T07:28:53.745Z,11.05
2023-04-17T07:31:22.099Z,10.38
2023-04-17T07:33:49.251Z,10.10
2023-04-17T07:36:16.333Z,10.70
2023-04-17T07:38:43.091Z,10.30
2023-04-17T07:41:11.785Z,9.82
2023-04-17T07:43:38.636Z,9.95
2023-04-17T07:46:05.704Z,9.75
2023-04-17T07:48:32.642Z,9.70
2023-04-17T07:51:01.397Z,8.90
2023-04-17T07:53:29.079Z,9.18
2023-04-17T07:55:56.211Z,9.35
2023-04-17T07:58:24.087Z,8.82
2023-04-17T08:00:51.988Z,8.27
2023-04-17T08:03:24.257Z,8.57
2023-04-17T08:05:54.286Z,8.77
2023-04-17T08:08:22.834Z,8.68
2023-04-17T08:10:50.108Z,7.50
2023-04-17T08:13:16.886Z,8.40
2023-04-17T08:15:43.908Z,9.45
2023-04-17T08:18:10.837Z,7.80
2023-04-17T08:20:37.661Z,8.10
2023-04-17T08:23:05.161Z,8.68
2023-04-17T08:25:32.053Z,8.77
2023-04-17T08:27:58.904Z,8.25
2023-04-17T08:30:25.788Z,8.02
2023-04-17T08:32:52.585Z,8.15
2023-04-17T08:35:19.469Z,7.75
2023-04-17T08:37:49.029Z,7.63
2023-04-17T08:40:17.159Z,8.70
2023-04-17T08:42:44.403Z,7.80
2023-04-17T08:45:12.391Z,7.03
2023-04-17T08:47:40.542Z,7.88
2023-04-17T08:50:09.770Z,7.28
2023-04-17T08:52:50.153Z,7.28
2023-04-17T08:55:21.637Z,7.53
2023-04-17T09:00:31.621Z,6.80
2023-04-17T09:03:00.566Z,7.18
2023-04-17T09:05:36.622Z,6.88
2023-04-17T09:08:14.346Z,7.22
2023-04-17T09:13:09.828Z,6.90
2023-04-17T09:15:36.883Z,6.35
2023-04-17T09:18:04.167Z,6.25
2023-04-17T09:20:31.159Z,6.68
2023-04-17T09:23:02.977Z,6.38
2023-04-17T09:25:30.324Z,6.35
2023-04-17T09:28:11.554Z,6.80
2023-04-17T09:30:39.380Z,6.20
2023-04-17T09:33:08.488Z,6.25
2023-04-17T09:35:40.081Z,6.85
2023-04-17T09:38:07.432Z,6.30
2023-04-17T09:40:42.074Z,7.80
2023-04-17T09:43:10.676Z,6.38
2023-04-17T09:45:40.045Z,7.18
2023-04-17T09:48:10.168Z,7.88
2023-04-17T09:50:38.637Z,8.10
2023-04-17T09:53:07.689Z,8.63
2023-04-17T09:55:36.700Z,8.25
2023-04-17T09:58:05.513Z,8.80
2023-04-17T10:00:32.441Z,8.32
2023-04-17T10:03:00.205Z,7.78
2023-04-17T10:05:29.870Z,8.10
2023-04-17T10:07:57.362Z,8.35
2023-04-17T10:10:34.095Z,7.88
2023-04-17T10:13:03.128Z,8.27
2023-04-17T10:15:31.104Z,8.60
2023-04-17T10:18:21.584Z,8.35
2023-04-17T10:20:49.700Z,7.82
2023-04-17T10:23:35.807Z,7.57
2023-04-17T10:26:28.106Z,7.90
2023-04-17T10:28:57.866Z,9.15
2023-04-17T10:32:03.888Z,7.57
2023-04-17T10:34:37.669Z,7.90
2023-04-17T10:37:05.112Z,8.43
2023-04-17T10:40:00.820Z,8.68
2023-04-17T10:42:30.163Z,8.68
2023-04-17T10:44:59.883Z,8.10
2023-04-17T10:47:36.272Z,8.25
2023-04-17T10:50:07.616Z,8.32
2023-04-17T10:52:35.461Z,8.40
2023-04-17T10:55:23.084Z,8.15
2023-04-17T10:58:02.130Z,7.15
2023-04-17T11:00:35.855Z,6.88
2023-04-17T11:03:03.939Z,7.38
2023-04-17T11:05:31.940Z,7.25
2023-04-17T11:07:59.451Z,7.45
2023-04-17T11:10:26.632Z,7.20
2023-04-17T11:12:55.874Z,7.43
2023-04-17T11:15:30.097Z,6.63
2023-04-17T11:17:58.139Z,6.75
2023-04-17T11:20:26.840Z,7.10
2023-04-17T11:22:54.020Z,7.55
2023-04-17T11:25:27.947Z,6.90
2023-04-17T11:27:59.513Z,6.97
2023-04-17T11:30:38.268Z,7.78
2023-04-17T11:33:06.814Z,7.55
2023-04-17T11:35:36.099Z,8.10
2023-04-17T11:38:17.725Z,7.72
2023-04-17T11:40:51.754Z,7.82
2023-04-17T11:43:20.660Z,7.13
2023-04-17T11:45:50.913Z,7.07
2023-04-17T11:48:24.729Z,8.60
2023-04-17T11:50:55.926Z,7.25
2023-04-17T11:53:22.961Z,6.90
2023-04-17T11:56:14.282Z,7.20
2023-04-17T11:59:07.369Z,6.90
2023-04-17T12:01:34.252Z,6.45
2023-04-17T12:04:01.226Z,7.00
2023-04-17T12:06:38.169Z,6.28
2023-04-17T12:09:06.960Z,6.07
2023-04-17T12:11:34.456Z,6.53
2023-04-17T12:14:02.329Z,8.38
2023-04-17T12:16:29.720Z,6.78
2023-04-17T12:18:57.403Z,5.75
2023-04-17T12:21:24.301Z,5.93
2023-04-17T12:23:51.663Z,5.50
2023-04-17T12:26:18.551Z,5.03
2023-04-17T12:28:45.389Z,5.18
2023-04-17T12:31:12.752Z,4.72
2023-04-17T12:33:39.690Z,5.03
2023-04-17T12:36:06.955Z,5.22
2023-04-17T12:38:34.041Z,5.03
2023-04-17T12:41:01.000Z,4.75
2023-04-17T12:43:27.925Z,5.53
2023-04-17T12:45:54.843Z,5.00
2023-04-17T12:48:21.767Z,5.53
2023-04-17T12:50:48.596Z,5.63
2023-04-17T12:53:15.743Z,5.85
2023-04-17T12:55:44.334Z,5.85
2023-04-17T12:58:12.958Z,6.38
2023-04-17T13:00:43.468Z,5.72
2023-04-17T13:03:11.836Z,6.05
2023-04-17T13:05:39.407Z,7.68
2023-04-17T13:08:06.139Z,6.88
2023-04-17T13:10:34.322Z,5.80
2023-04-17T13:13:02.282Z,6.05
2023-04-17T13:15:29.038Z,5.65
2023-04-17T13:17:56.192Z,5.45
2023-04-17T13:20:23.213Z,6.80
2023-04-17T13:22:49.998Z,6.00
2023-04-17T13:25:17.020Z,6.45
2023-04-17T13:27:43.950Z,6.53
2023-04-17T13:30:11.736Z,6.50
2023-04-17T13:32:40.430Z,7.00
2023-04-17T13:35:09.642Z,6.68
2023-04-17T13:37:36.677Z,5.95
2023-04-17T13:40:05.139Z,6.28
2023-04-17T13:42:32.057Z,5.47
2023-04-17T13:44:58.745Z,5.55
2023-04-17T13:47:25.603Z,5.63
2023-04-17T13:49:52.355Z,6.28
2023-04-17T13:52:19.108Z,5.22
2023-04-17T13:54:45.864Z,6.18
2023-04-17T13:57:14.675Z,5.40
2023-04-17T13:59:41.471Z,4.95
2023-04-17T14:02:09.798Z,5.97
2023-04-17T14:04:36.740Z,5.68
2023-04-17T14:07:04.682Z,5.28
2023-04-17T14:09:31.445Z,5.55
2023-04-17T14:11:58.232Z,5.90
2023-04-17T14:14:25.084Z,5.78
2023-04-17T14:16:52.026Z,6.15
2023-04-17T14:19:19.006Z,6.60
2023-04-17T14:21:45.977Z,6.75
2023-04-17T14:24:12.864Z,6.55
2023-04-17T14:26:39.926Z,6.47
2023-04-17T14:29:06.737Z,6.20
2023-04-17T14:31:33.596Z,6.72
2023-04-17T14:34:00.782Z,6.40
2023-04-17T14:36:27.641Z,5.90
2023-04-17T14:38:54.839Z,6.20
2023-04-17T14:41:21.617Z,6.18
2023-04-17T14:43:48.440Z,5.65
2023-04-17T14:46:15.436Z,5.63
2023-04-17T14:48:54.678Z,5.70
2023-04-17T14:51:23.041Z,6.43
2023-04-17T14:53:51.270Z,5.70
2023-04-17T14:56:18.078Z,5.72
2023-04-17T14:58:45.094Z,6.05
2023-04-17T15:01:11.814Z,6.90
2023-04-17T15:03:38.901Z,6.93
2023-04-17T15:06:05.853Z,6.07
2023-04-17T15:08:32.668Z,6.57
2023-04-17T15:10:59.473Z,6.03
2023-04-17T15:13:26.336Z,6.30
2023-04-17T15:15:53.487Z,7.65
2023-04-17T15:18:20.212Z,5.90
2023-04-17T15:20:47.180Z,6.35
2023-04-17T15:23:13.956Z,6.40
2023-04-17T15:25:41.187Z,6.88
2023-04-17T15:28:07.956Z,7.15
2023-04-17T15:30:34.819Z,7.18
2023-04-17T15:33:01.601Z,6.47
2023-04-17T15:35:28.505Z,7.10
2023-04-17T15:37:55.244Z,6.60
2023-04-17T15:40:22.243Z,7.15
2023-04-17T15:42:49.080Z,6.38
2023-04-17T15:45:16.096Z,6.80
2023-04-17T15:47:43.042Z,7.72
2023-04-17T15:50:10.960Z,6.38
2023-04-17T15:52:38.595Z,7.50
2023-04-17T15:55:05.855Z,7.30
2023-04-17T15:57:32.663Z,7.43
2023-04-17T15:59:59.478Z,7.45
2023-04-17T16:02:26.349Z,8.25
2023-04-17T16:04:53.256Z,8.38
2023-04-17T16:07:20.073Z,8.30
2023-04-17T16:09:48.050Z,9.00
2023-04-17T16:12:14.981Z,8.98
2023-04-17T16:14:41.780Z,10.82
2023-04-17T16:17:08.574Z,9.52
2023-04-17T16:19:35.565Z,8.77
2023-04-17T16:22:02.425Z,8.82
2023-04-17T16:24:29.248Z,9.18
2023-04-17T16:26:58.259Z,9.27
2023-04-17T16:29:25.892Z,8.80
2023-04-17T16:31:53.975Z,8.88
2023-04-17T16:34:23.572Z,8.75
2023-04-17T16:36:50.591Z,9.80
2023-04-17T16:39:17.479Z,8.90
2023-04-17T16:41:44.297Z,8.80
2023-04-17T16:44:11.163Z,8.00
2023-04-17T16:46:55.280Z,8.93
2023-04-17T16:49:24.792Z,8.07
2023-04-17T16:51:51.744Z,8.50
2023-04-17T16:54:20.438Z,8.48
2023-04-17T16:56:48.622Z,9.25
2023-04-17T16:59:15.972Z,8.60
2023-04-17T17:01:42.840Z,9.00
2023-04-17T17:04:09.758Z,7.80
2023-04-17T17:06:36.717Z,8.15
2023-04-17T17:09:03.805Z,9.43
2023-04-17T17:11:30.749Z,8.73
2023-04-17T17:13:57.822Z,8.73
2023-04-17T17:16:25.005Z,8.90
2023-04-17T17:18:51.937Z,9.18
2023-04-17T17:21:18.886Z,8.60
2023-04-17T17:23:45.650Z,8.40
2023-04-17T17:26:12.564Z,8.20
2023-04-17T17:28:39.476Z,9.05
2023-04-17T17:31:08.187Z,9.55
2023-04-17T17:33:35.970Z,9.27
2023-04-17T17:36:03.974Z,8.43
2023-04-17T17:38:32.713Z,9.20
2023-04-17T17:40:59.886Z,9.07
2023-04-17T17:43:29.890Z,8.80
2023-04-17T17:45:56.620Z,9.23
2023-04-17T17:48:23.390Z,9.10
2023-04-17T17:50:53.635Z,9.77
2023-04-17T17:53:25.517Z,9.95
2023-04-17T17:55:57.196Z,9.95
2023-04-17T17:58:24.358Z,9.98
2023-04-17T18:00:51.243Z,11.18
2023-04-17T18:03:18.443Z,9.40
2023-04-17T18:05:46.611Z,9.88
2023-04-17T18:08:14.199Z,9.05
2023-04-17T18:10:41.096Z,9.13
2023-04-17T18:13:10.494Z,9.90
2023-04-17T18:18:18.205Z,8.98
2023-04-17T18:20:45.445Z,10.00
2023-04-17T18:23:12.376Z,9.55
2023-04-17T18:25:39.706Z,9.48
2023-04-17T18:28:06.791Z,10.25
2023-04-17T18:30:33.667Z,10.07
2023-04-17T18:33:00.732Z,10.30
2023-04-17T18:35:30.241Z,10.27
2023-04-17T18:37:59.554Z,9.88
2023-04-17T18:40:26.318Z,10.18
2023-04-17T18:42:53.598Z,10.50
2023-04-17T18:45:20.363Z,11.57
2023-04-17T18:47:48.371Z,10.07
2023-04-17T18:50:15.469Z,10.23
2023-04-17T18:52:46.821Z,10.10
2023-04-17T18:55:17.487Z,10.32
2023-04-17T18:57:44.655Z,10.70
2023-04-17T19:00:12.186Z,10.60
2023-04-17T19:02:42.633Z,11.52
2023-04-17T19:05:10.120Z,10.65
2023-04-17T19:07:36.948Z,11.50
2023-04-17T19:10:04.511Z,11.02
2023-04-17T19:12:31.557Z,11.18
2023-04-17T19:14:58.538Z,11.35
2023-04-17T19:17:25.641Z,10.98
2023-04-17T19:19:52.563Z,11.27
2023-04-17T19:22:19.538Z,10.88
2023-04-17T19:24:49.805Z,11.27
2023-04-17T19:27:17.166Z,11.68
2023-04-17T19:29:44.256Z,11.40
2023-04-17T19:32:12.111Z,11.75
2023-04-17T19:34:39.146Z,10.55
2023-04-17T19:37:05.977Z,10.25
2023-04-17T19:39:35.464Z,10.43
2023-04-17T19:42:02.826Z,10.52
2023-04-17T19:44:29.719Z,10.32
2023-04-17T19:46:56.921Z,11.15
2023-04-17T19:49:23.678Z,10.20
2023-04-17T19:51:50.628Z,9.63
2023-04-17T19:54:17.519Z,10.15
2023-04-17T19:56:44.305Z,10.45
2023-04-17T19:59:13.228Z,10.02
2023-04-17T20:01:42.941Z,10.40
2023-04-17T20:04:10.869Z,8.60
2023-04-17T20:06:39.431Z,9.60
2023-04-17T20:09:06.784Z,8.30
2023-04-17T20:11:33.986Z,8.55
2023-04-17T20:14:00.809Z,7.63
2023-04-17T20:16:27.928Z,8.80
2023-04-17T20:18:56.815Z,8.75
2023-04-17T20:21:23.831Z,9.23
2023-04-17T20:23:50.642Z,9.00
2023-04-17T20:26:17.465Z,8.57
2023-04-17T20:28:44.431Z,8.75
2023-04-17T20:31:11.667Z,9.07
2023-04-17T20:33:38.720Z,8.63
2023-04-17T20:36:06.043Z,9.95
2023-04-17T20:38:32.994Z,8.65
2023-04-17T20:40:59.821Z,8.63
2023-04-17T20:43:26.645Z,9.30
2023-04-17T20:45:53.536Z,8.52
2023-04-17T20:48:20.481Z,9.40
2023-04-17T20:50:47.444Z,8.50
2023-04-17T20:53:14.302Z,9.20
2023-04-17T20:55:41.365Z,9.00
2023-04-17T20:58:08.288Z,8.63
2023-04-17T21:00:35.136Z,9.98
2023-04-17T21:03:02.087Z,9.63
2023-04-17T21:05:29.181Z,9.65
2023-04-17T21:07:57.712Z,9.80
2023-04-17T21:10:24.628Z,9.20
2023-04-17T21:12:51.404Z,9.18
2023-04-17T21:15:18.253Z,9.20
2023-04-17T21:17:47.646Z,9.38
2023-04-17T21:20:14.786Z,9.93
2023-04-17T21:22:41.586Z,10.10
2023-04-17T21:25:08.670Z,11.15
2023-04-17T21:27:35.718Z,10.90
2023-04-17T21:30:03.868Z,11.35
2023-04-17T21:32:30.662Z,11.02
2023-04-17T21:34:57.558Z,10.02
2023-04-17T21:37:24.338Z,11.40
2023-04-17T21:39:51.130Z,11.45
2023-04-17T21:42:17.948Z,12.45
2023-04-17T21:44:44.731Z,12.57
2023-04-17T21:47:11.532Z,11.50
2023-04-17T21:49:38.224Z,12.77
2023-04-17T21:52:04.993Z,12.07
2023-04-17T21:54:32.948Z,13.45
2023-04-17T21:56:59.629Z,12.77
2023-04-17T21:59:26.338Z,12.45
2023-04-17T22:01:53.192Z,12.43
2023-04-17T22:04:19.971Z,11.88
2023-04-17T22:06:46.954Z,13.20
2023-04-17T22:09:13.945Z,12.52
2023-04-17T22:11:40.892Z,12.27
2023-04-17T22:14:07.576Z,13.10
2023-04-17T22:16:34.447Z,13.15
2023-04-17T22:19:01.325Z,12.18
2023-04-17T22:21:28.112Z,12.50
2023-04-17T22:23:54.848Z,12.68
2023-04-17T22:26:21.860Z,12.38
2023-04-17T22:28:48.621Z,12.95
2023-04-17T22:31:15.876Z,14.75
2023-04-17T22:33:43.120Z,13.45
2023-04-17T22:36:10.089Z,14.30
2023-04-17T22:38:37.029Z,13.48
2023-04-17T22:41:04.809Z,14.52
2023-04-17T22:43:31.498Z,15.10
2023-04-17T22:45:58.325Z,16.35
2023-04-17T22:48:25.616Z,15.63
2023-04-17T22:50:52.406Z,16.52
2023-04-17T22:53:19.101Z,17.15
2023-04-17T22:55:46.163Z,15.77
2023-04-17T22:58:12.900Z,17.27
2023-04-17T23:00:39.666Z,18.85
2023-04-17T23:03:06.469Z,17.92
2023-04-17T23:05:33.442Z,19.10
2023-04-17T23:08:00.418Z,19.38
2023-04-17T23:10:27.191Z,18.20
2023-04-17T23:12:53.992Z,18.85
2023-04-17T23:15:21.064Z,19.42
2023-04-17T23:17:47.841Z,18.75
2023-04-17T23:20:14.649Z,18.67
2023-04-17T23:22:41.418Z,19.05
2023-04-17T23:25:08.801Z,18.48
2023-04-17T23:27:35.605Z,18.13
2023-04-17T23:30:02.637Z,20.58
2023-04-17T23:32:29.378Z,18.85
2023-04-17T23:34:56.296Z,18.83
2023-04-17T23:37:23.103Z,18.60
2023-04-17T23:39:49.945Z,18.88
2023-04-17T23:42:16.909Z,18.13
2023-04-17T23:44:43.866Z,18.48
2023-04-17T23:47:11.460Z,17.17
2023-04-17T23:49:38.421Z,19.40
2023-04-17T23:52:05.300Z,20.05
2023-04-17T23:54:32.142Z,20.13
2023-04-17T23:56:58.920Z,19.23
2023-04-17T23:59:25.631Z,18.83
